Time;durP1;ratioP1;P1;durP2;ratioP2;P2;SDS_P1;SDS_P2;PMS_P1;PMS_P2;Temp;Humidity;BMP_temperature;BMP_pressure;BME280_temperature;BME280_humidity;BME280_pressure;Samples;Min_cycle;Max_cycle;Signal;HPM_P1;HPM_P2
2023/04/30 00:01:21;;;;;;;29.20;17.37;;;;;;;11.97;79.22;99924.69;4221125;28;20243;-66
2023/04/30 00:03:47;;;;;;;32.00;16.97;;;;;;;11.93;79.49;99926.84;4221258;28;20302;-67
2023/04/30 00:06:14;;;;;;;34.97;18.50;;;;;;;11.91;79.68;99931.59;4225013;28;20233;-66
2023/04/30 00:08:41;;;;;;;32.77;17.67;;;;;;;11.86;79.88;99932.09;4224000;28;20288;-66
2023/04/30 00:11:07;;;;;;;34.70;18.33;;;;;;;11.97;79.62;99935.53;4229416;28;20228;-69
2023/04/30 00:13:34;;;;;;;30.07;18.30;;;;;;;11.88;80.21;99930.06;4216537;28;20239;-69
2023/04/30 00:16:00;;;;;;;32.33;19.00;;;;;;;11.83;80.33;99926.16;4227642;28;20587;-65
2023/04/30 00:18:27;;;;;;;32.67;19.53;;;;;;;11.72;81.43;99932.75;4217693;28;24803;-66
2023/04/30 00:20:54;;;;;;;30.30;19.47;;;;;;;11.71;81.60;99939.19;4217091;28;20301;-66
2023/04/30 00:23:20;;;;;;;30.13;17.93;;;;;;;11.64;81.52;99928.19;4226138;28;20279;-66
2023/04/30 00:25:46;;;;;;;33.63;19.90;;;;;;;11.64;81.70;99930.91;4240814;28;20237;-66
2023/04/30 00:28:13;;;;;;;31.77;19.90;;;;;;;11.59;81.51;99938.69;4219529;28;23615;-69
2023/04/30 00:30:39;;;;;;;36.10;19.37;;;;;;;11.64;81.73;99941.75;4227570;28;20318;-64
2023/04/30 00:33:06;;;;;;;32.90;19.43;;;;;;;11.65;81.64;99943.44;4226366;28;20365;-68
2023/04/30 00:35:33;;;;;;;36.00;20.20;;;;;;;11.64;81.50;99940.88;4224132;28;21873;-68
2023/04/30 00:37:59;;;;;;;33.77;19.30;;;;;;;11.63;81.70;99947.34;4223910;28;20430;-68
2023/04/30 00:40:26;;;;;;;33.40;21.07;;;;;;;11.40;82.99;99943.38;4232899;28;23648;-67
2023/04/30 00:42:54;;;;;;;34.90;21.73;;;;;;;11.33;83.63;99949.63;4242541;28;20854;-66
2023/04/30 00:45:22;;;;;;;40.73;22.63;;;;;;;11.30;83.28;99939.09;4235272;28;21954;-68
2023/04/30 00:47:48;;;;;;;33.43;21.60;;;;;;;11.37;83.16;99945.56;4225677;28;20239;-68
2023/04/30 00:50:15;;;;;;;35.60;21.13;;;;;;;11.32;83.69;99951.47;4218839;28;25097;-69
2023/04/30 00:52:43;;;;;;;37.37;22.20;;;;;;;11.20;84.12;99944.66;4230963;28;23639;-67
2023/04/30 00:55:11;;;;;;;37.67;23.10;;;;;;;11.17;84.33;99950.41;4236232;28;25384;-67
2023/04/30 00:57:37;;;;;;;36.90;21.40;;;;;;;11.21;84.08;99947.22;4226269;28;20310;-68
2023/04/30 01:00:05;;;;;;;39.87;22.57;;;;;;;11.03;85.02;99943.72;4224496;28;20243;-69
2023/04/30 01:02:31;;;;;;;38.77;23.77;;;;;;;10.99;85.38;99950.50;4227366;28;20323;-66
2023/04/30 01:04:58;;;;;;;39.57;23.43;;;;;;;10.92;86.03;99955.69;4216583;28;20232;-70
2023/04/30 01:07:27;;;;;;;37.50;22.37;;;;;;;11.06;85.58;99952.41;4225612;28;20421;-68
2023/04/30 01:09:53;;;;;;;38.63;21.90;;;;;;;11.12;85.09;99948.19;4238228;28;20276;-67
2023/04/30 01:12:32;;;;;;;40.63;21.97;;;;;;;11.14;85.13;99948.03;4227484;28;20227;-67
2023/04/30 01:15:23;;;;;;;37.07;23.13;;;;;;;10.99;85.80;99948.63;4223194;28;21103;-69
2023/04/30 01:18:13;;;;;;;37.50;21.83;;;;;;;11.08;85.42;99955.78;4237729;28;21992;-68
2023/04/30 01:20:45;;;;;;;36.20;22.37;;;;;;;11.17;84.91;99959.41;4220869;28;20227;-67
2023/04/30 01:23:48;;;;;;;34.07;21.87;;;;;;;11.03;85.86;99963.56;4216877;28;20972;-67
2023/04/30 01:26:24;;;;;;;42.87;22.47;;;;;;;11.01;86.11;99959.31;4229934;28;20609;-65
2023/04/30 01:28:52;;;;;;;39.17;23.03;;;;;;;11.01;86.10;99962.03;4224896;28;20322;-66
2023/04/30 01:31:19;;;;;;;34.43;21.10;;;;;;;10.99;86.40;99964.88;4237385;28;20690;-67
2023/04/30 01:33:45;;;;;;;39.77;24.00;;;;;;;10.96;86.62;99961.63;4228491;28;20540;-68
2023/04/30 01:36:30;;;;;;;37.67;22.30;;;;;;;10.93;86.90;99963.69;4225289;28;21455;-68
2023/04/30 01:39:21;;;;;;;37.57;22.00;;;;;;;11.10;86.18;99956.47;4222860;28;21601;-66
2023/04/30 01:42:28;;;;;;;31.30;19.87;;;;;;;11.29;85.30;99962.63;4212663;28;20247;-67
2023/04/30 01:45:16;;;;;;;36.13;21.50;;;;;;;11.17;85.56;99969.38;4231419;28;20389;-64
2023/04/30 01:47:52;;;;;;;38.40;21.30;;;;;;;11.19;85.49;99964.66;4219733;28;20239;-65
2023/04/30 01:50:38;;;;;;;39.47;22.27;;;;;;;11.04;86.29;99964.41;4214065;28;20291;-69
2023/04/30 01:53:15;;;;;;;34.30;21.43;;;;;;;11.01;86.40;99965.56;4206930;28;20764;-66
2023/04/30 01:55:48;;;;;;;35.93;21.03;;;;;;;11.07;86.36;99964.91;4221091;28;20576;-69
2023/04/30 01:58:15;;;;;;;35.20;21.23;;;;;;;10.98;86.47;99975.88;4243318;28;20272;-66
2023/04/30 02:00:42;;;;;;;33.33;21.37;;;;;;;10.91;86.86;99973.00;4226145;28;20247;-67
2023/04/30 02:03:08;;;;;;;34.70;21.10;;;;;;;11.01;86.29;99973.69;4233418;28;23497;-68
2023/04/30 02:05:35;;;;;;;37.27;20.47;;;;;;;11.06;86.25;99975.91;4222591;28;20352;-66
2023/04/30 02:08:02;;;;;;;30.37;19.57;;;;;;;11.14;85.86;99975.13;4255857;28;20657;-66
2023/04/30 02:10:29;;;;;;;33.67;20.20;;;;;;;11.18;85.41;99971.91;4203620;28;21008;-67
2023/04/30 02:12:56;;;;;;;35.00;20.13;;;;;;;11.02;86.10;99974.56;4228075;28;20376;-67
2023/04/30 02:15:22;;;;;;;36.17;20.43;;;;;;;11.06;86.11;99984.03;4225633;28;20418;-67
2023/04/30 02:17:49;;;;;;;33.07;19.53;;;;;;;11.18;85.44;99984.63;4239339;28;22490;-65
2023/04/30 02:20:16;;;;;;;32.90;18.77;;;;;;;11.12;85.70;99982.56;4223369;28;20599;-67
2023/04/30 02:22:42;;;;;;;29.43;19.20;;;;;;;11.08;85.74;99988.28;4229036;28;20366;-66
2023/04/30 02:25:11;;;;;;;35.87;19.57;;;;;;;11.00;86.22;99990.94;4219946;28;20505;-66
2023/04/30 02:27:37;;;;;;;30.07;17.90;;;;;;;11.20;85.51;99990.72;4206758;28;20590;-65
2023/04/30 02:30:05;;;;;;;33.03;17.93;;;;;;;11.29;84.93;99997.03;4229269;28;20244;-66
2023/04/30 02:32:31;;;;;;;27.63;17.87;;;;;;;11.36;84.72;99998.94;4234141;28;20775;-67
2023/04/30 02:34:58;;;;;;;27.60;16.43;;;;;;;11.37;84.41;99991.63;4214226;28;20232;-68
2023/04/30 02:37:25;;;;;;;29.70;16.57;;;;;;;11.27;84.60;99999.91;4221397;28;21497;-65
2023/04/30 02:39:52;;;;;;;27.83;15.97;;;;;;;11.29;84.44;100007.84;4215877;28;20340;-67
2023/04/30 02:42:19;;;;;;;26.47;16.07;;;;;;;11.11;85.31;100000.66;4226807;28;20303;-67
2023/04/30 02:44:45;;;;;;;26.40;16.57;;;;;;;10.96;86.20;100007.69;4218214;28;20257;-66
2023/04/30 02:47:12;;;;;;;25.03;15.03;;;;;;;11.00;86.11;100018.03;4229966;28;20705;-67
2023/04/30 02:49:39;;;;;;;27.73;16.30;;;;;;;11.09;85.75;100017.06;4207897;28;20231;-66
2023/04/30 02:52:08;;;;;;;26.97;16.07;;;;;;;11.13;84.99;100022.19;4231446;28;20608;-69
2023/04/30 02:54:35;;;;;;;26.37;17.07;;;;;;;11.01;85.10;100021.63;4215343;28;20235;-68
2023/04/30 02:57:02;;;;;;;24.30;15.50;;;;;;;11.01;85.36;100030.56;4207853;28;21619;-65
2023/04/30 02:59:28;;;;;;;25.87;16.03;;;;;;;11.13;84.51;100038.44;4222934;28;21261;-66
2023/04/30 03:01:55;;;;;;;26.33;16.33;;;;;;;11.20;83.90;100043.03;4212009;28;20737;-66
2023/04/30 03:04:22;;;;;;;25.10;16.80;;;;;;;11.15;82.48;100039.97;4219114;28;21302;-66
2023/04/30 03:06:48;;;;;;;26.30;16.17;;;;;;;11.15;81.22;100042.69;4234169;28;20231;-68
2023/04/30 03:09:15;;;;;;;27.50;16.20;;;;;;;10.90;81.57;100038.97;4232149;28;20243;-67
2023/04/30 03:11:42;;;;;;;23.43;15.70;;;;;;;11.01;81.83;100037.88;4226592;28;21602;-68
2023/04/30 03:14:08;;;;;;;27.30;16.93;;;;;;;10.98;81.17;100049.00;4226288;28;20313;-66
2023/04/30 03:16:35;;;;;;;26.77;16.17;;;;;;;11.01;80.97;100046.81;4230742;28;20320;-67
2023/04/30 03:19:02;;;;;;;27.83;16.33;;;;;;;10.88;80.96;100044.53;4230769;28;21174;-67
2023/04/30 03:21:28;;;;;;;27.30;15.77;;;;;;;10.91;81.08;100041.53;4217731;28;20239;-66
2023/04/30 03:23:55;;;;;;;22.53;13.90;;;;;;;10.99;80.40;100050.72;4223842;28;22727;-66
2023/04/30 03:26:21;;;;;;;26.43;14.90;;;;;;;10.85;80.83;100049.41;4236135;28;20305;-66
2023/04/30 03:28:48;;;;;;;22.07;14.40;;;;;;;10.81;80.97;100054.31;4225065;28;20891;-65
2023/04/30 03:31:14;;;;;;;20.73;13.60;;;;;;;10.61;80.75;100067.22;4236442;28;21782;-66
2023/04/30 03:33:41;;;;;;;22.03;14.27;;;;;;;10.46;80.83;100066.91;4233324;28;25120;-66
2023/04/30 03:36:08;;;;;;;23.43;15.07;;;;;;;10.42;80.33;100081.75;4232534;28;20310;-67
2023/04/30 03:38:34;;;;;;;23.73;13.80;;;;;;;10.19;80.04;100074.06;4230388;28;20223;-66
2023/04/30 03:41:01;;;;;;;21.10;13.70;;;;;;;10.23;80.36;100080.88;4225051;28;20417;-69
2023/04/30 03:43:27;;;;;;;29.13;14.10;;;;;;;10.15;79.93;100092.47;4236289;28;22566;-64
2023/04/30 03:45:54;;;;;;;22.73;13.97;;;;;;;10.03;80.20;100096.38;4224394;28;20291;-65
2023/04/30 03:48:20;;;;;;;23.73;13.57;;;;;;;9.97;79.68;100095.13;4213898;28;20651;-65
2023/04/30 03:50:47;;;;;;;27.10;12.50;;;;;;;9.99;78.91;100098.53;4220898;28;21735;-66
2023/04/30 03:53:13;;;;;;;22.77;12.47;;;;;;;9.69;79.86;100110.53;4222552;28;20255;-65
2023/04/30 03:55:40;;;;;;;24.87;13.13;;;;;;;9.78;79.57;100108.75;4213813;28;20316;-66
2023/04/30 03:58:07;;;;;;;20.33;11.47;;;;;;;9.76;77.29;100124.28;4229075;28;21123;-66
2023/04/30 04:00:34;;;;;;;13.30;8.00;;;;;;;9.49;73.11;100112.47;4216817;28;20342;-68
2023/04/30 04:03:00;;;;;;;14.10;7.63;;;;;;;9.43;72.15;100123.88;4204523;28;20332;-66
2023/04/30 04:05:28;;;;;;;14.77;7.63;;;;;;;9.43;71.50;100123.88;4216661;28;20255;-67
2023/04/30 04:07:54;;;;;;;11.90;6.63;;;;;;;9.42;71.72;100139.22;4230424;28;22176;-65
2023/04/30 04:10:21;;;;;;;15.80;7.43;;;;;;;9.52;71.71;100144.56;4212912;28;22108;-66
2023/04/30 04:12:47;;;;;;;16.17;7.77;;;;;;;9.39;71.59;100139.53;4225372;28;20308;-67
2023/04/30 04:15:14;;;;;;;13.13;7.43;;;;;;;9.48;71.79;100151.28;4241308;28;20238;-64
2023/04/30 04:17:41;;;;;;;15.43;7.10;;;;;;;9.56;71.68;100151.41;4227065;28;26362;-65
2023/04/30 04:20:08;;;;;;;17.93;7.83;;;;;;;9.57;72.25;100158.50;4252452;28;21542;-65
2023/04/30 04:22:36;;;;;;;16.70;8.57;;;;;;;9.56;73.83;100162.22;4231875;28;20309;-65
2023/04/30 04:25:03;;;;;;;16.37;8.90;;;;;;;9.38;74.75;100162.13;4228270;28;21159;-65
2023/04/30 04:27:30;;;;;;;18.67;9.60;;;;;;;9.45;74.34;100165.06;4226113;28;21399;-66
2023/04/30 04:29:56;;;;;;;19.73;8.90;;;;;;;9.40;73.31;100159.28;4205224;28;20243;-66
2023/04/30 04:32:23;;;;;;;13.60;8.10;;;;;;;9.40;72.72;100168.25;4219770;28;20239;-67
2023/04/30 04:34:50;;;;;;;14.87;8.27;;;;;;;9.59;72.25;100177.28;4227598;28;26487;-66
2023/04/30 04:37:16;;;;;;;15.83;8.13;;;;;;;9.54;72.42;100179.56;4233834;28;24966;-65
2023/04/30 04:39:43;;;;;;;13.63;8.07;;;;;;;9.65;71.19;100188.34;4220571;28;20314;-68
2023/04/30 04:42:10;;;;;;;17.93;8.40;;;;;;;9.64;71.59;100193.88;4209408;28;20236;-64
2023/04/30 04:44:38;;;;;;;14.83;8.00;;;;;;;9.63;71.55;100198.44;4212502;28;20224;-66
2023/04/30 04:47:04;;;;;;;13.07;7.50;;;;;;;9.61;72.01;100200.44;4223232;28;20243;-65
2023/04/30 04:49:31;;;;;;;16.60;8.63;;;;;;;9.61;71.71;100208.56;4208730;28;21320;-66
2023/04/30 04:51:58;;;;;;;15.23;8.17;;;;;;;9.74;71.64;100208.22;4220331;28;20239;-66
2023/04/30 04:54:25;;;;;;;16.13;7.70;;;;;;;9.86;71.19;100206.19;4234328;28;21174;-65
2023/04/30 04:56:51;;;;;;;14.53;8.17;;;;;;;9.83;71.63;100217.28;4229172;28;20359;-64
2023/04/30 04:59:18;;;;;;;17.07;9.10;;;;;;;9.85;71.38;100209.06;4226504;28;23430;-65
2023/04/30 05:01:44;;;;;;;14.70;8.23;;;;;;;9.90;71.87;100218.41;4217259;28;20605;-64
2023/04/30 05:04:12;;;;;;;14.50;8.53;;;;;;;9.74;71.82;100218.22;4245970;28;21057;-68
2023/04/30 05:06:40;;;;;;;16.27;8.50;;;;;;;9.75;72.25;100219.88;4225493;28;20249;-67
2023/04/30 05:09:08;;;;;;;15.00;8.63;;;;;;;9.70;72.04;100224.88;4211526;28;20821;-68
2023/04/30 05:11:35;;;;;;;20.07;9.50;;;;;;;9.84;71.98;100232.53;4240020;28;20231;-66
2023/04/30 05:14:02;;;;;;;18.50;9.03;;;;;;;9.85;72.03;100231.53;4221343;28;20410;-70
2023/04/30 05:16:28;;;;;;;17.23;9.33;;;;;;;9.80;72.38;100241.94;4242191;28;20650;-65
2023/04/30 05:18:55;;;;;;;20.50;9.43;;;;;;;9.89;71.74;100240.19;4188601;28;21654;-69
2023/04/30 05:21:22;;;;;;;25.00;9.70;;;;;;;10.09;70.98;100246.38;4214920;28;21117;-67
2023/04/30 05:23:48;;;;;;;16.20;10.20;;;;;;;10.21;70.66;100247.88;4237893;28;20297;-66
2023/04/30 05:26:15;;;;;;;20.63;9.57;;;;;;;10.29;69.89;100260.69;4215276;28;20278;-68
2023/04/30 05:28:42;;;;;;;16.37;9.33;;;;;;;10.28;70.02;100259.81;4225042;28;20326;-68
2023/04/30 05:31:08;;;;;;;21.10;9.83;;;;;;;10.25;69.76;100264.66;4226305;28;20240;-65
2023/04/30 05:33:35;;;;;;;18.90;9.53;;;;;;;10.28;70.36;100259.81;4225808;28;20312;-65
2023/04/30 05:36:02;;;;;;;17.17;10.03;;;;;;;10.36;69.95;100260.91;4217142;28;20247;-65
2023/04/30 05:38:29;;;;;;;17.67;9.77;;;;;;;10.40;69.88;100273.19;4217292;28;20227;-67
2023/04/30 05:40:56;;;;;;;18.70;10.60;;;;;;;10.32;70.17;100265.75;4216415;28;20647;-69
2023/04/30 05:43:22;;;;;;;19.30;10.20;;;;;;;10.30;70.65;100270.50;4216256;28;20235;-67
2023/04/30 05:45:49;;;;;;;17.23;10.33;;;;;;;10.37;70.54;100277.03;4231602;28;20409;-66
2023/04/30 05:48:15;;;;;;;17.90;10.47;;;;;;;10.51;70.62;100283.78;4205815;28;20327;-68
2023/04/30 05:50:42;;;;;;;20.13;11.33;;;;;;;10.52;70.04;100280.09;4224332;28;20323;-69
2023/04/30 05:53:09;;;;;;;20.57;10.57;;;;;;;10.69;70.14;100286.53;4203505;28;20255;-65
2023/04/30 05:55:35;;;;;;;25.90;11.93;;;;;;;10.66;69.87;100284.16;4210196;28;20251;-67
2023/04/30 05:58:02;;;;;;;20.07;11.70;;;;;;;10.74;69.81;100277.94;4217998;28;23574;-65
2023/04/30 06:00:29;;;;;;;23.97;12.20;;;;;;;10.39;71.61;100293.97;4216328;28;20243;-66
2023/04/30 06:02:55;;;;;;;23.93;12.47;;;;;;;10.67;70.19;100293.09;4243548;28;21603;-64
2023/04/30 06:05:22;;;;;;;24.13;12.77;;;;;;;11.05;69.66;100292.00;4214441;28;22425;-67
2023/04/30 06:07:49;;;;;;;21.67;11.63;;;;;;;10.97;69.60;100296.47;4233463;28;20708;-67
2023/04/30 06:10:15;;;;;;;22.13;12.47;;;;;;;11.01;68.86;100301.44;4231233;28;20237;-67
2023/04/30 06:12:42;;;;;;;21.50;12.23;;;;;;;10.89;69.47;100298.09;4227781;28;21176;-65
2023/04/30 06:15:08;;;;;;;22.43;12.03;;;;;;;10.90;69.97;100302.50;4228627;28;20612;-69
2023/04/30 06:17:35;;;;;;;21.00;11.67;;;;;;;11.00;70.24;100304.31;4232982;28;20277;-67
2023/04/30 06:20:05;;;;;;;25.60;13.13;;;;;;;10.76;72.08;100308.44;4212599;28;21740;-69
2023/04/30 06:22:33;;;;;;;23.00;13.63;;;;;;;10.99;71.45;100316.13;4212469;28;20447;-66
2023/04/30 06:24:59;;;;;;;22.93;13.53;;;;;;;10.65;71.69;100312.22;4207810;28;20937;-65
2023/04/30 06:27:31;;;;;;;24.57;13.83;;;;;;;10.74;71.43;100311.31;4221741;28;20223;-66
2023/04/30 06:29:59;;;;;;;25.53;13.47;;;;;;;10.76;70.71;100316.56;4229080;28;20321;-67
2023/04/30 06:32:26;;;;;;;22.87;13.03;;;;;;;10.66;70.37;100322.03;4238566;28;21752;-66
2023/04/30 06:34:54;;;;;;;22.97;13.50;;;;;;;10.81;70.58;100316.97;4220523;28;21109;-66
2023/04/30 06:37:20;;;;;;;23.47;13.10;;;;;;;11.08;69.17;100318.78;4231949;28;21887;-67
2023/04/30 06:39:47;;;;;;;19.23;10.50;;;;;;;12.75;62.24;100318.91;4255958;28;21739;-68
2023/04/30 06:42:14;;;;;;;20.53;9.60;;;;;;;15.16;54.55;100310.25;4228133;28;20231;-65
2023/04/30 06:44:40;;;;;;;14.30;7.50;;;;;;;15.14;50.51;100307.72;4230844;28;20436;-69
2023/04/30 06:47:07;;;;;;;14.20;7.10;;;;;;;15.63;50.66;100313.81;4218285;28;20238;-68
2023/04/30 06:49:34;;;;;;;16.17;7.10;;;;;;;18.35;43.58;100310.06;4256869;28;20502;-65
2023/04/30 06:52:00;;;;;;;11.50;5.18;;;;;;;18.82;38.52;100313.03;4243375;28;22203;-65
2023/04/30 06:54:27;;;;;;;9.47;4.70;;;;;;;20.10;36.27;100311.34;4223851;28;20434;-66
2023/04/30 06:56:53;;;;;;;11.90;4.13;;;;;;;19.52;36.30;100320.22;4223493;28;21833;-67
2023/04/30 06:59:20;;;;;;;7.73;4.13;;;;;;;18.40;38.84;100314.06;4268185;28;20238;-67
2023/04/30 07:01:47;;;;;;;15.00;4.90;;;;;;;18.35;39.02;100323.75;4248906;28;20303;-66
2023/04/30 07:04:13;;;;;;;9.87;4.60;;;;;;;18.27;38.20;100317.59;4270735;28;20228;-65
2023/04/30 07:06:40;;;;;;;9.57;4.57;;;;;;;20.16;36.29;100319.81;4246282;28;20259;-68
2023/04/30 07:09:07;;;;;;;14.97;4.27;;;;;;;21.30;32.85;100324.91;4253621;28;20597;-70
2023/04/30 07:11:34;;;;;;;11.43;4.47;;;;;;;21.26;32.60;100329.16;4234175;28;20686;-67
2023/04/30 07:14:00;;;;;;;9.70;3.93;;;;;;;18.89;36.25;100317.69;4234958;28;20289;-67
2023/04/30 07:16:27;;;;;;;9.50;3.43;;;;;;;19.31;35.97;100332.22;4277573;28;20238;-65
2023/04/30 07:18:54;;;;;;;15.50;3.40;;;;;;;21.64;31.29;100322.81;4236434;28;20310;-67
2023/04/30 07:21:20;;;;;;;9.57;2.93;;;;;;;22.14;30.11;100331.06;4253903;28;20243;-70
2023/04/30 07:23:50;;;;;;;7.75;3.15;;;;;;;22.86;28.64;100337.06;4232044;28;25764;-68
2023/04/30 07:26:17;;;;;;;9.03;3.30;;;;;;;21.64;30.13;100326.38;4250187;28;21850;-68
2023/04/30 07:28:46;;;;;;;7.73;3.13;;;;;;;21.01;31.81;100335.44;4231367;28;22118;-66
2023/04/30 07:31:13;;;;;;;7.07;3.13;;;;;;;21.67;31.18;100330.59;4229741;28;20233;-74
2023/04/30 07:33:42;;;;;;;10.83;3.57;;;;;;;21.47;31.08;100337.06;4215464;28;20356;-63
2023/04/30 07:36:10;;;;;;;11.57;3.77;;;;;;;20.33;33.00;100337.50;4231483;28;20303;-67
2023/04/30 07:38:36;;;;;;;9.40;3.87;;;;;;;19.17;33.86;100336.81;4237414;28;20276;-65
2023/04/30 07:41:03;;;;;;;8.50;3.43;;;;;;;17.73;37.53;100348.13;4225185;28;20814;-65
2023/04/30 07:43:30;;;;;;;8.50;3.37;;;;;;;18.76;35.08;100349.50;4230152;28;21697;-66
2023/04/30 07:45:58;;;;;;;8.07;3.23;;;;;;;18.40;34.71;100350.56;4245640;28;20230;-66
2023/04/30 07:48:24;;;;;;;8.67;3.23;;;;;;;17.53;36.08;100353.41;4225654;28;22669;-66
2023/04/30 07:50:51;;;;;;;10.03;2.70;;;;;;;17.65;36.42;100358.38;4222418;28;20235;-67
2023/04/30 07:53:18;;;;;;;9.77;3.57;;;;;;;17.06;37.01;100344.72;4250296;28;21134;-67
2023/04/30 07:55:45;;;;;;;7.97;3.10;;;;;;;16.19;38.54;100362.63;4229543;28;20411;-66
2023/04/30 07:58:12;;;;;;;11.93;3.57;;;;;;;16.31;38.96;100360.28;4259945;28;20264;-66
2023/04/30 08:00:38;;;;;;;9.03;3.90;;;;;;;15.58;40.76;100357.19;4252150;28;20300;-65
2023/04/30 08:03:05;;;;;;;8.13;3.67;;;;;;;15.58;40.44;100370.81;4241163;28;20230;-65
2023/04/30 08:05:32;;;;;;;11.27;3.57;;;;;;;15.65;39.41;100366.34;4242388;28;20795;-68
2023/04/30 08:07:59;;;;;;;8.80;3.40;;;;;;;15.98;39.19;100371.53;4251615;28;20640;-66
2023/04/30 08:10:26;;;;;;;11.23;3.23;;;;;;;15.92;39.36;100369.53;4252823;28;20284;-69
2023/04/30 08:12:52;;;;;;;11.20;3.40;;;;;;;15.89;39.26;100372.66;4269255;28;20234;-67
2023/04/30 08:15:22;;;;;;;8.13;2.70;;;;;;;15.62;39.11;100366.69;4243130;28;22963;-68
2023/04/30 08:17:50;;;;;;;9.43;3.07;;;;;;;15.81;38.97;100387.16;4252031;28;20574;-67
2023/04/30 08:20:17;;;;;;;12.37;4.13;;;;;;;14.85;41.63;100376.53;4226368;28;20242;-67
2023/04/30 08:22:44;;;;;;;9.27;3.10;;;;;;;14.84;41.53;100383.00;4232029;28;20930;-70
2023/04/30 08:25:11;;;;;;;11.23;3.03;;;;;;;14.32;41.16;100377.00;4276146;28;23504;-70
2023/04/30 08:27:38;;;;;;;9.33;2.97;;;;;;;14.99;39.23;100386.69;4255832;28;20689;-70
2023/04/30 08:30:07;;;;;;;8.23;3.23;;;;;;;14.68;39.01;100389.38;4227944;28;20422;-67
2023/04/30 08:32:35;;;;;;;5.73;2.77;;;;;;;14.92;37.92;100387.59;4262255;28;20457;-67
2023/04/30 08:35:05;;;;;;;9.63;2.77;;;;;;;14.31;38.00;100394.38;4258246;28;20653;-67
2023/04/30 08:37:32;;;;;;;11.30;3.03;;;;;;;14.42;36.82;100395.88;4236053;28;25254;-67
2023/04/30 08:39:59;;;;;;;4.50;2.33;;;;;;;13.96;36.18;100399.19;4231158;28;20306;-66
2023/04/30 08:42:35;;;;;;;6.63;2.27;;;;;;;13.70;38.08;100385.75;4233703;28;22547;-64
2023/04/30 08:45:02;;;;;;;5.97;2.57;;;;;;;14.51;37.41;100400.28;4217698;28;20723;-67
2023/04/30 08:47:30;;;;;;;7.63;2.33;;;;;;;14.19;38.44;100399.31;4220678;28;20269;-65
2023/04/30 08:49:56;;;;;;;15.10;2.60;;;;;;;14.97;36.11;100393.34;4249835;28;20297;-67
2023/04/30 08:52:24;;;;;;;6.60;2.13;;;;;;;14.71;33.23;100406.22;4259563;28;20545;-68
2023/04/30 08:54:53;;;;;;;7.60;1.97;;;;;;;14.69;33.40;100410.97;4268488;28;20277;-69
2023/04/30 08:57:19;;;;;;;7.37;2.47;;;;;;;13.70;36.54;100408.34;4256516;28;20226;-65
2023/04/30 08:59:46;;;;;;;4.83;2.30;;;;;;;13.72;37.07;100408.16;4227522;28;20549;-69
2023/04/30 09:02:13;;;;;;;6.03;2.50;;;;;;;13.59;36.36;100398.63;4224684;28;20406;-67
2023/04/30 09:04:40;;;;;;;6.20;2.17;;;;;;;13.46;35.69;100406.44;4255001;28;20294;-67
2023/04/30 09:07:06;;;;;;;6.07;2.13;;;;;;;13.24;37.83;100416.03;4241811;28;23672;-69
2023/04/30 09:09:38;;;;;;;10.63;2.50;;;;;;;13.39;38.48;100414.41;4238171;28;20235;-69
2023/04/30 09:12:14;;;;;;;5.27;2.40;;;;;;;13.16;38.97;100415.00;4243955;28;21449;-68
2023/04/30 09:15:02;;;;;;;6.50;2.53;;;;;;;13.37;39.63;100410.97;4236252;28;20400;-64
2023/04/30 09:17:29;;;;;;;4.30;2.23;;;;;;;13.34;39.22;100422.19;4232349;28;20580;-69
2023/04/30 09:20:07;;;;;;;6.70;1.90;;;;;;;13.88;36.85;100426.38;4247479;28;21763;-70
2023/04/30 09:22:35;;;;;;;5.50;2.00;;;;;;;13.63;35.97;100429.06;4229190;28;20243;-70
2023/04/30 09:25:02;;;;;;;3.50;1.83;;;;;;;13.95;35.40;100421.97;4265813;28;20309;-70
2023/04/30 09:27:28;;;;;;;9.68;2.30;;;;;;;14.03;36.18;100418.38;4249757;28;20558;-68
2023/04/30 09:29:55;;;;;;;4.97;1.80;;;;;;;13.37;37.06;100426.44;4224913;28;20807;-65
2023/04/30 09:32:22;;;;;;;7.17;1.90;;;;;;;13.72;36.20;100433.50;4233298;28;20240;-66
2023/04/30 09:34:49;;;;;;;6.20;1.87;;;;;;;13.16;37.01;100428.59;4245903;28;20255;-67
2023/04/30 09:37:15;;;;;;;5.33;1.77;;;;;;;13.40;37.06;100428.88;4216405;28;20238;-68
2023/04/30 09:39:52;;;;;;;8.73;2.10;;;;;;;13.53;36.56;100431.09;4225707;28;20236;-63
2023/04/30 09:42:20;;;;;;;4.47;2.13;;;;;;;13.53;35.99;100434.66;4237727;28;20283;-63
2023/04/30 09:44:47;;;;;;;7.20;2.10;;;;;;;13.54;36.90;100424.63;4227068;28;20232;-65
2023/04/30 09:47:18;;;;;;;8.03;2.40;;;;;;;13.81;37.53;100437.09;4235375;28;20298;-67
2023/04/30 09:49:50;;;;;;;7.43;2.23;;;;;;;14.19;36.35;100434.69;4228806;28;20227;-65
2023/04/30 09:52:19;;;;;;;6.23;2.20;;;;;;;14.33;33.93;100444.06;4226876;28;20238;-62
2023/04/30 09:54:46;;;;;;;10.50;2.13;;;;;;;13.67;35.88;100427.69;4246996;28;20245;-64
2023/04/30 09:57:14;;;;;;;4.67;2.20;;;;;;;13.49;36.55;100438.72;4234120;28;20234;-63
2023/04/30 09:59:45;;;;;;;7.00;2.30;;;;;;;13.63;37.12;100448.94;4215952;28;20591;-62
2023/04/30 10:02:15;;;;;;;6.93;2.13;;;;;;;13.55;37.58;100426.34;4235668;28;22110;-64
2023/04/30 10:04:43;;;;;;;5.27;1.70;;;;;;;13.83;37.56;100426.03;4236703;28;20441;-66
2023/04/30 10:07:19;;;;;;;6.93;2.53;;;;;;;13.28;38.54;100422.84;4234659;28;23021;-65
2023/04/30 10:10:01;;;;;;;13.53;3.00;;;;;;;13.43;37.54;100432.09;4246091;28;20359;-66
2023/04/30 10:12:43;;;;;;;11.63;2.50;;;;;;;13.65;39.23;100432.47;4233216;28;20230;-63
2023/04/30 10:15:30;;;;;;;7.63;2.10;;;;;;;13.55;36.71;100429.06;4230025;28;20311;-67
2023/04/30 10:18:03;;;;;;;6.33;2.00;;;;;;;13.83;36.96;100426.03;4239900;28;20242;-64
2023/04/30 10:20:31;;;;;;;4.50;1.60;;;;;;;13.52;37.07;100435.69;4230200;28;20231;-65
2023/04/30 10:22:58;;;;;;;7.90;2.07;;;;;;;13.65;38.09;100426.19;4244407;28;20323;-64
2023/04/30 10:25:26;;;;;;;10.00;1.97;;;;;;;13.74;35.20;100431.47;4215576;28;20235;-64
2023/04/30 10:27:53;;;;;;;4.90;1.50;;;;;;;13.75;35.16;100427.72;4246099;28;25076;-65
2023/04/30 10:30:21;;;;;;;7.20;1.60;;;;;;;13.77;35.69;100435.72;4225850;28;20235;-66
2023/04/30 10:32:54;;;;;;;8.47;1.87;;;;;;;13.79;36.18;100422.78;4228962;28;20228;-65
2023/04/30 10:35:27;;;;;;;3.80;1.60;;;;;;;13.74;36.06;100434.19;4210697;28;23387;-67
2023/04/30 10:38:00;;;;;;;6.83;1.50;;;;;;;13.76;35.90;100431.31;4213026;28;20246;-68
2023/04/30 10:40:27;;;;;;;10.13;1.67;;;;;;;13.49;37.00;100424.28;4215974;28;20272;-64
2023/04/30 10:42:54;;;;;;;4.27;1.43;;;;;;;14.19;36.75;100422.97;4249034;28;22831;-66
2023/04/30 10:45:37;;;;;;;2.80;1.43;;;;;;;14.13;31.42;100423.63;4238845;28;20473;-67
2023/04/30 10:48:05;;;;;;;4.07;1.20;;;;;;;14.16;31.20;100426.88;4230320;28;21321;-66
2023/04/30 10:50:32;;;;;;;4.67;1.30;;;;;;;14.02;33.02;100424.84;4233917;28;20237;-66
2023/04/30 10:53:02;;;;;;;3.27;1.23;;;;;;;14.22;33.91;100423.47;4212987;28;26353;-64
2023/04/30 10:55:30;;;;;;;8.23;1.70;;;;;;;14.20;35.34;100425.53;4206379;28;20234;-64
2023/04/30 10:57:57;;;;;;;6.17;1.60;;;;;;;14.22;35.95;100428.94;4247122;28;20241;-65
2023/04/30 11:00:28;;;;;;;5.37;1.57;;;;;;;14.29;34.53;100425.50;4223448;28;20482;-65
2023/04/30 11:02:56;;;;;;;6.90;2.17;;;;;;;14.56;35.61;100432.44;4233763;28;23798;-66
2023/04/30 11:05:37;;;;;;;7.07;1.60;;;;;;;14.56;35.76;100446.06;4205340;28;20530;-67
2023/04/30 11:08:05;;;;;;;6.07;1.40;;;;;;;14.00;35.52;100437.78;4254498;28;20383;-66
2023/04/30 11:10:33;;;;;;;3.37;1.43;;;;;;;14.15;36.38;100432.50;4223239;28;20232;-68
2023/04/30 11:13:09;;;;;;;9.73;1.60;;;;;;;14.23;35.20;100435.22;4234551;28;20236;-66
2023/04/30 11:15:44;;;;;;;6.17;1.60;;;;;;;14.41;34.23;100433.16;4226575;28;22248;-66
2023/04/30 11:18:12;;;;;;;4.77;1.40;;;;;;;14.06;34.53;100437.94;4242949;28;21128;-67
2023/04/30 11:20:43;;;;;;;8.50;1.90;;;;;;;14.15;35.74;100452.41;4225017;28;20713;-64
2023/04/30 11:23:16;;;;;;;5.33;1.63;;;;;;;14.10;35.30;100441.16;4238001;28;20408;-66
2023/04/30 11:26:03;;;;;;;6.27;1.13;;;;;;;14.32;34.13;100430.59;4223390;28;21171;-65